メインページ
METAR-TAF:

METAR-TAF

空港 :

ラロトンガ国際空港

ラロトンガ島, クック諸島

緯度: 21-12S, 経度: 159-49W, 海抜: 7m

現時点の気象観測

当レポートは31分前の14:00(UTC)に作成
の風 6kt
気温 24°C
湿度 83%
気圧 1016 hPa
視程10km以上
高度1800ftの雲はほとんどない

METAR: NCRG 251400Z 08006KT 9999 FEW018 24/21 Q1016 RMK DEW

時間: 04:31 (14:31 UTC)

予報

当レポートは3時間12分前の11:19(UTC)に作成
予報は25日の 12時(UTC)から 26日の 12時(UTC)まで有効
の風 7kt
視程10km以上
高度2000ftの雲はほとんどない

TAF: NCRG 251119Z 2512/2612 10007KT 9999 FEW020

4,000以上の空港の気象観測と天気予報(METAR報とTAF報)

利用可能な観測所は地図上に黄色い丸と赤い丸で示す。

丸の上にカーソルを重ねると観測所名を参照できる。

次にクリックすると気象観測と天気予報を参照できる。

マップの切り替え:黒色「×」印の緑ボタンをクリックして拡大、「-」印の緑ボタンをクリックして縮小、緑色の三角印をクリックして隣りの地図に切り替え


METAR-TAF: